sensor_id;sensor_type;location;lat;lon;timestamp;pressure;altitude;pressure_sealevel;temperature;humidity
13593;BME280;6867;50.998;4.250;2024-02-21T00:01:22;102034.34;;;13.45;nan
13593;BME280;6867;50.998;4.250;2024-02-21T00:03:49;102025.25;;;13.25;nan
13593;BME280;6867;50.998;4.250;2024-02-21T00:06:15;102017.84;;;13.33;nan
13593;BME280;6867;50.998;4.250;2024-02-21T00:08:43;102023.28;;;13.40;nan
13593;BME280;6867;50.998;4.250;2024-02-21T00:11:10;102003.28;;;13.56;nan
13593;BME280;6867;50.998;4.250;2024-02-21T00:13:37;102009.66;;;13.48;nan
13593;BME280;6867;50.998;4.250;2024-02-21T00:16:04;101996.31;;;13.75;nan
13593;BME280;6867;50.998;4.250;2024-02-21T00:18:30;102014.66;;;13.23;nan
13593;BME280;6867;50.998;4.250;2024-02-21T00:20:57;102016.56;;;13.08;nan
13593;BME280;6867;50.998;4.250;2024-02-21T00:23:24;101988.94;;;13.27;nan
13593;BME280;6867;50.998;4.250;2024-02-21T00:25:52;101988.00;;;12.92;nan
13593;BME280;6867;50.998;4.250;2024-02-21T00:28:19;101988.88;;;13.42;nan
13593;BME280;6867;50.998;4.250;2024-02-21T00:30:46;101988.56;;;13.30;nan
13593;BME280;6867;50.998;4.250;2024-02-21T00:33:16;101989.09;;;12.98;nan
13593;BME280;6867;50.998;4.250;2024-02-21T00:35:42;101989.69;;;12.71;nan
13593;BME280;6867;50.998;4.250;2024-02-21T00:38:09;102000.78;;;12.11;nan
13593;BME280;6867;50.998;4.250;2024-02-21T00:40:36;102013.63;;;12.09;nan
13593;BME280;6867;50.998;4.250;2024-02-21T00:43:04;101999.31;;;12.44;nan
13593;BME280;6867;50.998;4.250;2024-02-21T00:45:30;101978.47;;;12.53;nan
13593;BME280;6867;50.998;4.250;2024-02-21T00:47:57;101971.38;;;12.67;nan
13593;BME280;6867;50.998;4.250;2024-02-21T00:50:24;101960.25;;;12.34;nan
13593;BME280;6867;50.998;4.250;2024-02-21T00:52:51;101957.25;;;12.29;nan
13593;BME280;6867;50.998;4.250;2024-02-21T00:55:17;101959.56;;;12.68;nan
13593;BME280;6867;50.998;4.250;2024-02-21T00:57:44;101958.06;;;12.87;nan
13593;BME280;6867;50.998;4.250;2024-02-21T01:00:13;101967.00;;;11.93;nan
13593;BME280;6867;50.998;4.250;2024-02-21T01:02:40;101998.75;;;12.13;nan
13593;BME280;6867;50.998;4.250;2024-02-21T01:05:07;101985.84;;;11.64;nan
13593;BME280;6867;50.998;4.250;2024-02-21T01:07:34;102006.41;;;11.57;nan
13593;BME280;6867;50.998;4.250;2024-02-21T01:10:00;101992.56;;;11.45;nan
13593;BME280;6867;50.998;4.250;2024-02-21T01:12:27;101982.91;;;11.21;nan
13593;BME280;6867;50.998;4.250;2024-02-21T01:14:53;101995.59;;;11.12;nan
13593;BME280;6867;50.998;4.250;2024-02-21T01:17:22;101993.25;;;11.09;nan
13593;BME280;6867;50.998;4.250;2024-02-21T01:19:48;101980.44;;;11.11;nan
13593;BME280;6867;50.998;4.250;2024-02-21T01:22:15;101991.19;;;10.96;nan
13593;BME280;6867;50.998;4.250;2024-02-21T01:24:43;101982.41;;;10.80;nan
13593;BME280;6867;50.998;4.250;2024-02-21T01:27:09;101970.22;;;10.69;nan
13593;BME280;6867;50.998;4.250;2024-02-21T01:29:36;101967.31;;;10.25;nan
13593;BME280;6867;50.998;4.250;2024-02-21T01:32:03;101974.56;;;10.16;nan
13593;BME280;6867;50.998;4.250;2024-02-21T01:34:31;101978.22;;;10.15;nan
13593;BME280;6867;50.998;4.250;2024-02-21T01:36:58;101966.25;;;10.34;nan
13593;BME280;6867;50.998;4.250;2024-02-21T01:39:29;101948.59;;;10.39;nan
13593;BME280;6867;50.998;4.250;2024-02-21T01:41:56;101957.59;;;10.15;nan
13593;BME280;6867;50.998;4.250;2024-02-21T01:44:23;101968.41;;;10.38;nan
13593;BME280;6867;50.998;4.250;2024-02-21T01:46:50;101937.25;;;10.52;nan
13593;BME280;6867;50.998;4.250;2024-02-21T01:49:18;101918.97;;;10.47;nan
13593;BME280;6867;50.998;4.250;2024-02-21T01:51:46;101952.78;;;10.03;nan
13593;BME280;6867;50.998;4.250;2024-02-21T01:54:14;101953.13;;;10.08;nan
13593;BME280;6867;50.998;4.250;2024-02-21T01:56:42;101949.66;;;10.30;nan
13593;BME280;6867;50.998;4.250;2024-02-21T01:59:09;101967.28;;;10.33;nan
13593;BME280;6867;50.998;4.250;2024-02-21T02:01:37;101965.66;;;10.46;nan
13593;BME280;6867;50.998;4.250;2024-02-21T02:04:04;101961.00;;;10.40;nan
13593;BME280;6867;50.998;4.250;2024-02-21T02:06:31;101953.84;;;10.56;nan
13593;BME280;6867;50.998;4.250;2024-02-21T02:08:59;101944.00;;;10.71;nan
13593;BME280;6867;50.998;4.250;2024-02-21T02:11:26;101927.50;;;10.97;nan
13593;BME280;6867;50.998;4.250;2024-02-21T02:13:52;101924.09;;;10.80;nan
13593;BME280;6867;50.998;4.250;2024-02-21T02:16:19;101931.38;;;10.94;nan
13593;BME280;6867;50.998;4.250;2024-02-21T02:18:46;101930.41;;;11.40;nan
13593;BME280;6867;50.998;4.250;2024-02-21T02:21:22;101913.97;;;11.20;nan
13593;BME280;6867;50.998;4.250;2024-02-21T02:23:51;101912.47;;;11.03;nan
13593;BME280;6867;50.998;4.250;2024-02-21T02:26:18;101915.53;;;10.39;nan
13593;BME280;6867;50.998;4.250;2024-02-21T02:28:48;101934.28;;;10.47;nan
13593;BME280;6867;50.998;4.250;2024-02-21T02:31:14;101917.84;;;10.65;nan
13593;BME280;6867;50.998;4.250;2024-02-21T02:33:42;101915.63;;;10.91;nan
13593;BME280;6867;50.998;4.250;2024-02-21T02:36:09;101897.44;;;10.79;nan
13593;BME280;6867;50.998;4.250;2024-02-21T02:38:36;101907.09;;;10.65;nan
13593;BME280;6867;50.998;4.250;2024-02-21T02:41:05;101901.69;;;10.88;nan
13593;BME280;6867;50.998;4.250;2024-02-21T02:43:31;101885.97;;;11.00;nan
13593;BME280;6867;50.998;4.250;2024-02-21T02:45:58;101890.13;;;11.02;nan
13593;BME280;6867;50.998;4.250;2024-02-21T02:48:25;101883.38;;;11.06;nan
13593;BME280;6867;50.998;4.250;2024-02-21T02:50:51;101878.38;;;11.18;nan
13593;BME280;6867;50.998;4.250;2024-02-21T02:53:18;101866.41;;;11.06;nan
13593;BME280;6867;50.998;4.250;2024-02-21T02:55:45;101859.81;;;11.23;nan
13593;BME280;6867;50.998;4.250;2024-02-21T02:58:13;101843.78;;;11.00;nan
13593;BME280;6867;50.998;4.250;2024-02-21T03:00:39;101850.00;;;11.30;nan
13593;BME280;6867;50.998;4.250;2024-02-21T03:03:07;101830.72;;;11.27;nan
13593;BME280;6867;50.998;4.250;2024-02-21T03:05:34;101817.81;;;11.22;nan
13593;BME280;6867;50.998;4.250;2024-02-21T03:08:00;101816.88;;;11.15;nan
13593;BME280;6867;50.998;4.250;2024-02-21T03:10:27;101809.31;;;11.04;nan
13593;BME280;6867;50.998;4.250;2024-02-21T03:12:54;101817.81;;;10.92;nan
13593;BME280;6867;50.998;4.250;2024-02-21T03:15:22;101819.16;;;10.73;nan
13593;BME280;6867;50.998;4.250;2024-02-21T03:17:49;101822.53;;;10.90;nan
13593;BME280;6867;50.998;4.250;2024-02-21T03:20:16;101822.34;;;11.07;nan
13593;BME280;6867;50.998;4.250;2024-02-21T03:22:45;101810.69;;;11.29;nan
13593;BME280;6867;50.998;4.250;2024-02-21T03:25:12;101788.03;;;11.38;nan
13593;BME280;6867;50.998;4.250;2024-02-21T03:27:40;101775.31;;;11.47;nan
13593;BME280;6867;50.998;4.250;2024-02-21T03:30:07;101770.56;;;11.49;nan
13593;BME280;6867;50.998;4.250;2024-02-21T03:32:35;101770.81;;;11.18;nan
13593;BME280;6867;50.998;4.250;2024-02-21T03:35:04;101765.16;;;11.13;nan
13593;BME280;6867;50.998;4.250;2024-02-21T03:37:31;101776.94;;;10.97;nan
13593;BME280;6867;50.998;4.250;2024-02-21T03:39:58;101773.59;;;11.25;nan
13593;BME280;6867;50.998;4.250;2024-02-21T03:42:26;101768.56;;;11.07;nan
13593;BME280;6867;50.998;4.250;2024-02-21T03:44:54;101774.81;;;10.92;nan
13593;BME280;6867;50.998;4.250;2024-02-21T03:47:21;101779.06;;;11.02;nan
13593;BME280;6867;50.998;4.250;2024-02-21T03:49:49;101770.75;;;11.33;nan
13593;BME280;6867;50.998;4.250;2024-02-21T03:52:16;101756.31;;;11.19;nan
13593;BME280;6867;50.998;4.250;2024-02-21T03:54:43;101761.44;;;11.29;nan
13593;BME280;6867;50.998;4.250;2024-02-21T03:57:09;101768.06;;;11.47;nan
13593;BME280;6867;50.998;4.250;2024-02-21T03:59:36;101741.50;;;11.95;nan
13593;BME280;6867;50.998;4.250;2024-02-21T04:02:04;101739.25;;;11.41;nan
13593;BME280;6867;50.998;4.250;2024-02-21T04:04:33;101772.06;;;11.37;nan
13593;BME280;6867;50.998;4.250;2024-02-21T04:07:02;101764.72;;;12.03;nan
13593;BME280;6867;50.998;4.250;2024-02-21T04:09:31;101739.72;;;12.65;nan
13593;BME280;6867;50.998;4.250;2024-02-21T04:11:58;101720.41;;;12.27;nan
13593;BME280;6867;50.998;4.250;2024-02-21T04:14:25;101737.97;;;12.23;nan
13593;BME280;6867;50.998;4.250;2024-02-21T04:16:51;101740.84;;;12.43;nan
13593;BME280;6867;50.998;4.250;2024-02-21T04:19:18;101727.84;;;11.61;nan
13593;BME280;6867;50.998;4.250;2024-02-21T04:21:45;101777.72;;;11.78;nan
13593;BME280;6867;50.998;4.250;2024-02-21T04:24:13;101759.19;;;11.32;nan
13593;BME280;6867;50.998;4.250;2024-02-21T04:26:39;101761.75;;;11.40;nan
13593;BME280;6867;50.998;4.250;2024-02-21T04:29:06;101768.13;;;11.03;nan
13593;BME280;6867;50.998;4.250;2024-02-21T04:31:33;101774.91;;;10.84;nan
13593;BME280;6867;50.998;4.250;2024-02-21T04:33:59;101799.16;;;10.76;nan
13593;BME280;6867;50.998;4.250;2024-02-21T04:36:26;101777.78;;;10.83;nan
13593;BME280;6867;50.998;4.250;2024-02-21T04:38:53;101774.63;;;10.94;nan
13593;BME280;6867;50.998;4.250;2024-02-21T04:41:21;101763.19;;;11.07;nan
13593;BME280;6867;50.998;4.250;2024-02-21T04:43:47;101761.75;;;11.77;nan
13593;BME280;6867;50.998;4.250;2024-02-21T04:46:14;101724.19;;;11.47;nan
13593;BME280;6867;50.998;4.250;2024-02-21T04:48:41;101718.78;;;11.26;nan
13593;BME280;6867;50.998;4.250;2024-02-21T04:51:08;101731.22;;;10.97;nan
13593;BME280;6867;50.998;4.250;2024-02-21T04:53:34;101750.88;;;10.97;nan
13593;BME280;6867;50.998;4.250;2024-02-21T04:56:01;101766.81;;;10.69;nan
13593;BME280;6867;50.998;4.250;2024-02-21T04:58:29;101738.84;;;11.08;nan
13593;BME280;6867;50.998;4.250;2024-02-21T05:00:56;101717.38;;;11.15;nan
13593;BME280;6867;50.998;4.250;2024-02-21T05:03:23;101719.66;;;11.33;nan
13593;BME280;6867;50.998;4.250;2024-02-21T05:05:50;101707.19;;;11.10;nan
13593;BME280;6867;50.998;4.250;2024-02-21T05:08:16;101696.03;;;11.28;nan
13593;BME280;6867;50.998;4.250;2024-02-21T05:10:43;101698.69;;;11.43;nan
13593;BME280;6867;50.998;4.250;2024-02-21T05:13:10;101682.97;;;11.25;nan
13593;BME280;6867;50.998;4.250;2024-02-21T05:15:38;101671.41;;;11.10;nan
13593;BME280;6867;50.998;4.250;2024-02-21T05:18:04;101681.28;;;11.24;nan
13593;BME280;6867;50.998;4.250;2024-02-21T05:20:31;101688.75;;;11.43;nan
13593;BME280;6867;50.998;4.250;2024-02-21T05:22:58;101661.47;;;11.68;nan
13593;BME280;6867;50.998;4.250;2024-02-21T05:25:24;101650.63;;;11.40;nan
13593;BME280;6867;50.998;4.250;2024-02-21T05:27:51;101666.41;;;11.43;nan
13593;BME280;6867;50.998;4.250;2024-02-21T05:30:19;101672.94;;;11.34;nan
13593;BME280;6867;50.998;4.250;2024-02-21T05:32:47;101660.31;;;11.77;nan
13593;BME280;6867;50.998;4.250;2024-02-21T05:35:13;101658.56;;;11.69;nan
13593;BME280;6867;50.998;4.250;2024-02-21T05:37:40;101648.66;;;11.91;nan
13593;BME280;6867;50.998;4.250;2024-02-21T05:40:08;101640.31;;;11.65;nan
13593;BME280;6867;50.998;4.250;2024-02-21T05:42:37;101650.13;;;11.72;nan
13593;BME280;6867;50.998;4.250;2024-02-21T05:45:05;101640.53;;;11.63;nan
13593;BME280;6867;50.998;4.250;2024-02-21T05:47:31;101626.28;;;11.91;nan
13593;BME280;6867;50.998;4.250;2024-02-21T05:49:59;101619.72;;;12.00;nan
13593;BME280;6867;50.998;4.250;2024-02-21T05:52:26;101615.78;;;11.75;nan
13593;BME280;6867;50.998;4.250;2024-02-21T05:54:53;101623.00;;;11.95;nan
13593;BME280;6867;50.998;4.250;2024-02-21T05:57:20;101620.56;;;12.01;nan
13593;BME280;6867;50.998;4.250;2024-02-21T05:59:46;101617.63;;;11.95;nan
13593;BME280;6867;50.998;4.250;2024-02-21T06:02:13;101617.22;;;11.99;nan
13593;BME280;6867;50.998;4.250;2024-02-21T06:04:40;101593.72;;;11.86;nan
13593;BME280;6867;50.998;4.250;2024-02-21T06:07:09;101596.34;;;11.58;nan
13593;BME280;6867;50.998;4.250;2024-02-21T06:09:36;101581.75;;;11.88;nan
13593;BME280;6867;50.998;4.250;2024-02-21T06:12:03;101588.94;;;12.09;nan
13593;BME280;6867;50.998;4.250;2024-02-21T06:14:30;101571.06;;;12.02;nan
13593;BME280;6867;50.998;4.250;2024-02-21T06:16:56;101563.78;;;12.37;nan
13593;BME280;6867;50.998;4.250;2024-02-21T06:19:23;101556.59;;;12.51;nan
13593;BME280;6867;50.998;4.250;2024-02-21T06:21:50;101547.28;;;12.53;nan
13593;BME280;6867;50.998;4.250;2024-02-21T06:24:18;101548.75;;;12.56;nan
13593;BME280;6867;50.998;4.250;2024-02-21T06:26:44;101549.47;;;12.36;nan
13593;BME280;6867;50.998;4.250;2024-02-21T06:29:11;101564.69;;;12.09;nan
13593;BME280;6867;50.998;4.250;2024-02-21T06:31:39;101578.00;;;12.24;nan
13593;BME280;6867;50.998;4.250;2024-02-21T06:34:06;101573.28;;;12.26;nan
13593;BME280;6867;50.998;4.250;2024-02-21T06:36:32;101572.34;;;12.47;nan
13593;BME280;6867;50.998;4.250;2024-02-21T06:38:59;101552.13;;;12.78;nan
13593;BME280;6867;50.998;4.250;2024-02-21T06:41:27;101548.47;;;12.44;nan
13593;BME280;6867;50.998;4.250;2024-02-21T06:43:55;101536.41;;;13.87;nan
13593;BME280;6867;50.998;4.250;2024-02-21T06:46:23;101524.69;;;12.61;nan
13593;BME280;6867;50.998;4.250;2024-02-21T06:48:50;101561.94;;;12.44;nan
13593;BME280;6867;50.998;4.250;2024-02-21T06:51:17;101536.41;;;13.08;nan
13593;BME280;6867;50.998;4.250;2024-02-21T06:53:43;101529.56;;;14.05;nan
13593;BME280;6867;50.998;4.250;2024-02-21T06:56:10;101473.50;;;14.38;nan
13593;BME280;6867;50.998;4.250;2024-02-21T06:58:38;101489.59;;;14.65;nan
13593;BME280;6867;50.998;4.250;2024-02-21T07:01:05;101462.56;;;14.20;nan
13593;BME280;6867;50.998;4.250;2024-02-21T07:03:32;101508.66;;;13.47;nan
13593;BME280;6867;50.998;4.250;2024-02-21T07:05:59;101494.91;;;13.88;nan
13593;BME280;6867;50.998;4.250;2024-02-21T07:08:25;101483.16;;;14.14;nan
13593;BME280;6867;50.998;4.250;2024-02-21T07:10:52;101479.34;;;14.35;nan
13593;BME280;6867;50.998;4.250;2024-02-21T07:13:19;101483.53;;;14.25;nan
13593;BME280;6867;50.998;4.250;2024-02-21T07:15:48;101484.81;;;14.15;nan
13593;BME280;6867;50.998;4.250;2024-02-21T07:18:15;101514.88;;;13.61;nan
13593;BME280;6867;50.998;4.250;2024-02-21T07:20:41;101540.66;;;12.56;nan
13593;BME280;6867;50.998;4.250;2024-02-21T07:23:08;101554.81;;;12.71;nan
13593;BME280;6867;50.998;4.250;2024-02-21T07:25:35;101559.13;;;12.65;nan
13593;BME280;6867;50.998;4.250;2024-02-21T07:28:02;101584.44;;;12.23;nan
13593;BME280;6867;50.998;4.250;2024-02-21T07:30:29;101577.41;;;11.94;nan
13593;BME280;6867;50.998;4.250;2024-02-21T07:32:57;101589.47;;;11.98;nan
13593;BME280;6867;50.998;4.250;2024-02-21T07:35:24;101556.28;;;12.80;nan
13593;BME280;6867;50.998;4.250;2024-02-21T07:37:50;101556.81;;;12.56;nan
13593;BME280;6867;50.998;4.250;2024-02-21T07:40:17;101557.72;;;12.28;nan
13593;BME280;6867;50.998;4.250;2024-02-21T07:42:44;101550.22;;;12.17;nan
13593;BME280;6867;50.998;4.250;2024-02-21T07:45:11;101553.47;;;12.54;nan
13593;BME280;6867;50.998;4.250;2024-02-21T07:47:37;101536.13;;;12.63;nan
13593;BME280;6867;50.998;4.250;2024-02-21T07:50:07;101508.16;;;12.77;nan
13593;BME280;6867;50.998;4.250;2024-02-21T07:52:34;101517.91;;;12.78;nan
13593;BME280;6867;50.998;4.250;2024-02-21T07:55:00;101514.66;;;13.09;nan
13593;BME280;6867;50.998;4.250;2024-02-21T07:57:28;101490.03;;;12.44;nan
13593;BME280;6867;50.998;4.250;2024-02-21T07:59:55;101505.47;;;12.77;nan
13593;BME280;6867;50.998;4.250;2024-02-21T08:02:22;101493.84;;;12.63;nan
13593;BME280;6867;50.998;4.250;2024-02-21T08:04:48;101492.94;;;12.50;nan
13593;BME280;6867;50.998;4.250;2024-02-21T08:07:16;101485.75;;;12.63;nan
13593;BME280;6867;50.998;4.250;2024-02-21T08:09:43;101495.28;;;12.73;nan
13593;BME280;6867;50.998;4.250;2024-02-21T08:12:10;101503.03;;;13.09;nan
13593;BME280;6867;50.998;4.250;2024-02-21T08:14:36;101458.22;;;12.88;nan
13593;BME280;6867;50.998;4.250;2024-02-21T08:17:03;101474.75;;;12.65;nan
13593;BME280;6867;50.998;4.250;2024-02-21T08:19:30;101483.47;;;12.67;nan
13593;BME280;6867;50.998;4.250;2024-02-21T08:21:57;101473.75;;;12.86;nan
13593;BME280;6867;50.998;4.250;2024-02-21T08:24:25;101476.75;;;12.36;nan
13593;BME280;6867;50.998;4.250;2024-02-21T08:26:51;101452.81;;;12.88;nan
13593;BME280;6867;50.998;4.250;2024-02-21T08:29:18;101425.19;;;12.46;nan
13593;BME280;6867;50.998;4.250;2024-02-21T08:31:45;101422.69;;;12.58;nan
13593;BME280;6867;50.998;4.250;2024-02-21T08:34:12;101379.59;;;12.98;nan
13593;BME280;6867;50.998;4.250;2024-02-21T08:36:38;101409.88;;;12.73;nan
13593;BME280;6867;50.998;4.250;2024-02-21T08:39:05;101422.03;;;13.62;nan
13593;BME280;6867;50.998;4.250;2024-02-21T08:41:34;101336.97;;;14.61;nan
13593;BME280;6867;50.998;4.250;2024-02-21T08:44:01;101302.72;;;14.48;nan
13593;BME280;6867;50.998;4.250;2024-02-21T08:46:28;101331.97;;;13.50;nan
13593;BME280;6867;50.998;4.250;2024-02-21T08:48:55;101347.00;;;12.99;nan
13593;BME280;6867;50.998;4.250;2024-02-21T08:51:21;101367.75;;;13.05;nan
13593;BME280;6867;50.998;4.250;2024-02-21T08:53:48;101345.75;;;13.21;nan
13593;BME280;6867;50.998;4.250;2024-02-21T08:56:15;101331.44;;;14.17;nan
13593;BME280;6867;50.998;4.250;2024-02-21T08:58:44;101272.19;;;14.91;nan
13593;BME280;6867;50.998;4.250;2024-02-21T09:01:12;101268.47;;;14.42;nan
13593;BME280;6867;50.998;4.250;2024-02-21T09:03:39;101272.31;;;14.03;nan
13593;BME280;6867;50.998;4.250;2024-02-21T09:06:06;101230.19;;;14.70;nan
13593;BME280;6867;50.998;4.250;2024-02-21T09:08:33;101292.34;;;13.43;nan
13593;BME280;6867;50.998;4.250;2024-02-21T09:11:00;101299.31;;;12.86;nan
13593;BME280;6867;50.998;4.250;2024-02-21T09:13:27;101311.03;;;13.90;nan
13593;BME280;6867;50.998;4.250;2024-02-21T09:15:55;101244.84;;;13.42;nan
13593;BME280;6867;50.998;4.250;2024-02-21T09:18:22;101323.19;;;12.30;nan
13593;BME280;6867;50.998;4.250;2024-02-21T09:20:49;101339.34;;;12.50;nan
13593;BME280;6867;50.998;4.250;2024-02-21T09:23:15;101312.38;;;12.23;nan
13593;BME280;6867;50.998;4.250;2024-02-21T09:25:42;101319.44;;;12.24;nan
13593;BME280;6867;50.998;4.250;2024-02-21T09:28:09;101304.53;;;12.81;nan
13593;BME280;6867;50.998;4.250;2024-02-21T09:30:36;101260.34;;;12.82;nan
13593;BME280;6867;50.998;4.250;2024-02-21T09:33:05;101275.06;;;12.66;nan
13593;BME280;6867;50.998;4.250;2024-02-21T09:35:32;101214.19;;;13.24;nan
13593;BME280;6867;50.998;4.250;2024-02-21T09:37:59;101202.94;;;12.75;nan
13593;BME280;6867;50.998;4.250;2024-02-21T09:40:26;101229.91;;;13.33;nan
13593;BME280;6867;50.998;4.250;2024-02-21T09:43:02;101198.66;;;14.14;nan
13593;BME280;6867;50.998;4.250;2024-02-21T09:45:30;101167.63;;;14.23;nan
13593;BME280;6867;50.998;4.250;2024-02-21T09:48:21;101168.00;;;14.52;nan
13593;BME280;6867;50.998;4.250;2024-02-21T09:50:53;101148.88;;;14.03;nan
13593;BME280;6867;50.998;4.250;2024-02-21T09:53:21;101128.88;;;14.11;nan
13593;BME280;6867;50.998;4.250;2024-02-21T09:55:50;101132.38;;;13.61;nan
13593;BME280;6867;50.998;4.250;2024-02-21T09:58:18;101145.03;;;14.17;nan
13593;BME280;6867;50.998;4.250;2024-02-21T10:00:45;101144.97;;;14.67;nan
13593;BME280;6867;50.998;4.250;2024-02-21T10:03:13;101106.34;;;14.17;nan
13593;BME280;6867;50.998;4.250;2024-02-21T10:05:47;101114.41;;;14.42;nan
13593;BME280;6867;50.998;4.250;2024-02-21T10:08:15;101112.03;;;14.89;nan
13593;BME280;6867;50.998;4.250;2024-02-21T10:10:42;101082.84;;;15.09;nan
13593;BME280;6867;50.998;4.250;2024-02-21T10:13:09;101096.44;;;15.86;nan
13593;BME280;6867;50.998;4.250;2024-02-21T10:15:37;101070.34;;;15.38;nan
13593;BME280;6867;50.998;4.250;2024-02-21T10:18:04;101048.84;;;15.25;nan
13593;BME280;6867;50.998;4.250;2024-02-21T10:20:33;101062.75;;;15.29;nan
13593;BME280;6867;50.998;4.250;2024-02-21T10:23:00;101048.25;;;15.65;nan
13593;BME280;6867;50.998;4.250;2024-02-21T10:25:28;101051.91;;;16.06;nan
13593;BME280;6867;50.998;4.250;2024-02-21T10:27:56;101041.00;;;14.45;nan
13593;BME280;6867;50.998;4.250;2024-02-21T10:30:23;101097.81;;;14.20;nan
13593;BME280;6867;50.998;4.250;2024-02-21T10:32:50;101119.97;;;14.47;nan
13593;BME280;6867;50.998;4.250;2024-02-21T10:35:26;101141.72;;;13.90;nan
13593;BME280;6867;50.998;4.250;2024-02-21T10:37:55;101107.75;;;14.81;nan
13593;BME280;6867;50.998;4.250;2024-02-21T10:40:23;101073.38;;;15.00;nan
13593;BME280;6867;50.998;4.250;2024-02-21T10:42:52;101052.47;;;14.40;nan
13593;BME280;6867;50.998;4.250;2024-02-21T10:45:23;101032.44;;;14.97;nan
13593;BME280;6867;50.998;4.250;2024-02-21T10:47:55;101049.22;;;15.29;nan
13593;BME280;6867;50.998;4.250;2024-02-21T10:50:24;101034.38;;;14.78;nan
13593;BME280;6867;50.998;4.250;2024-02-21T10:52:59;101049.09;;;15.24;nan
13593;BME280;6867;50.998;4.250;2024-02-21T10:55:37;101038.69;;;14.30;nan
13593;BME280;6867;50.998;4.250;2024-02-21T10:58:05;101016.56;;;14.70;nan
13593;BME280;6867;50.998;4.250;2024-02-21T11:00:33;101018.59;;;15.16;nan
13593;BME280;6867;50.998;4.250;2024-02-21T11:03:00;101005.63;;;14.95;nan
13593;BME280;6867;50.998;4.250;2024-02-21T11:05:27;100973.72;;;15.39;nan
13593;BME280;6867;50.998;4.250;2024-02-21T11:07:55;101007.28;;;15.85;nan
13593;BME280;6867;50.998;4.250;2024-02-21T11:10:25;100998.44;;;15.89;nan
13593;BME280;6867;50.998;4.250;2024-02-21T11:12:53;100963.69;;;15.63;nan
13593;BME280;6867;50.998;4.250;2024-02-21T11:15:25;100934.50;;;15.41;nan
13593;BME280;6867;50.998;4.250;2024-02-21T11:17:55;100960.53;;;15.89;nan
13593;BME280;6867;50.998;4.250;2024-02-21T11:20:32;100924.34;;;15.84;nan
13593;BME280;6867;50.998;4.250;2024-02-21T11:22:59;100936.38;;;15.53;nan
13593;BME280;6867;50.998;4.250;2024-02-21T11:25:28;100947.28;;;16.05;nan
13593;BME280;6867;50.998;4.250;2024-02-21T11:28:00;100920.91;;;16.86;nan
13593;BME280;6867;50.998;4.250;2024-02-21T11:30:29;100882.25;;;16.33;nan
13593;BME280;6867;50.998;4.250;2024-02-21T11:33:00;100896.84;;;16.44;nan
13593;BME280;6867;50.998;4.250;2024-02-21T11:35:31;100914.97;;;16.15;nan
13593;BME280;6867;50.998;4.250;2024-02-21T11:38:08;100909.13;;;16.80;nan
13593;BME280;6867;50.998;4.250;2024-02-21T11:40:38;100893.66;;;15.78;nan
13593;BME280;6867;50.998;4.250;2024-02-21T11:43:05;100873.69;;;15.96;nan
13593;BME280;6867;50.998;4.250;2024-02-21T11:45:32;100886.94;;;15.81;nan
13593;BME280;6867;50.998;4.250;2024-02-21T11:47:59;100872.22;;;16.34;nan
13593;BME280;6867;50.998;4.250;2024-02-21T11:50:29;100842.59;;;16.27;nan
13593;BME280;6867;50.998;4.250;2024-02-21T11:52:55;100843.69;;;15.86;nan
13593;BME280;6867;50.998;4.250;2024-02-21T11:55:22;100862.63;;;16.26;nan
13593;BME280;6867;50.998;4.250;2024-02-21T11:57:51;100828.69;;;15.95;nan
13593;BME280;6867;50.998;4.250;2024-02-21T12:00:19;100867.22;;;16.42;nan
13593;BME280;6867;50.998;4.250;2024-02-21T12:02:46;100836.75;;;16.35;nan
13593;BME280;6867;50.998;4.250;2024-02-21T12:05:14;100807.09;;;16.29;nan
13593;BME280;6867;50.998;4.250;2024-02-21T12:07:40;100832.69;;;16.21;nan
13593;BME280;6867;50.998;4.250;2024-02-21T12:10:08;100831.09;;;16.71;nan
13593;BME280;6867;50.998;4.250;2024-02-21T12:12:36;100812.78;;;16.44;nan
13593;BME280;6867;50.998;4.250;2024-02-21T12:15:05;100789.59;;;16.36;nan
13593;BME280;6867;50.998;4.250;2024-02-21T12:17:32;100814.34;;;16.57;nan
13593;BME280;6867;50.998;4.250;2024-02-21T12:20:00;100806.59;;;16.32;nan
13593;BME280;6867;50.998;4.250;2024-02-21T12:22:29;100807.50;;;16.71;nan
13593;BME280;6867;50.998;4.250;2024-02-21T12:24:57;100738.25;;;16.13;nan
13593;BME280;6867;50.998;4.250;2024-02-21T12:27:24;100788.56;;;16.09;nan
13593;BME280;6867;50.998;4.250;2024-02-21T12:29:51;100788.22;;;16.51;nan
13593;BME280;6867;50.998;4.250;2024-02-21T12:32:20;100785.00;;;16.54;nan
13593;BME280;6867;50.998;4.250;2024-02-21T12:34:46;100765.53;;;16.23;nan
13593;BME280;6867;50.998;4.250;2024-02-21T12:37:13;100760.88;;;15.90;nan
13593;BME280;6867;50.998;4.250;2024-02-21T12:39:41;100788.59;;;15.40;nan
13593;BME280;6867;50.998;4.250;2024-02-21T12:42:07;100775.50;;;15.49;nan
13593;BME280;6867;50.998;4.250;2024-02-21T12:44:36;100756.88;;;15.00;nan
13593;BME280;6867;50.998;4.250;2024-02-21T12:47:03;100763.94;;;15.53;nan
13593;BME280;6867;50.998;4.250;2024-02-21T12:49:31;100771.50;;;15.51;nan
13593;BME280;6867;50.998;4.250;2024-02-21T12:51:58;100745.97;;;16.04;nan
13593;BME280;6867;50.998;4.250;2024-02-21T12:54:25;100763.38;;;14.64;nan
13593;BME280;6867;50.998;4.250;2024-02-21T12:56:52;100772.44;;;15.85;nan
13593;BME280;6867;50.998;4.250;2024-02-21T12:59:18;100753.41;;;15.80;nan
13593;BME280;6867;50.998;4.250;2024-02-21T13:01:45;100727.00;;;16.55;nan
13593;BME280;6867;50.998;4.250;2024-02-21T13:04:12;100713.91;;;16.85;nan
13593;BME280;6867;50.998;4.250;2024-02-21T13:06:40;100666.03;;;17.18;nan
13593;BME280;6867;50.998;4.250;2024-02-21T13:09:06;100636.06;;;16.86;nan
13593;BME280;6867;50.998;4.250;2024-02-21T13:11:36;100664.75;;;17.04;nan
13593;BME280;6867;50.998;4.250;2024-02-21T13:14:03;100657.41;;;16.60;nan
13593;BME280;6867;50.998;4.250;2024-02-21T13:16:29;100633.09;;;16.10;nan
13593;BME280;6867;50.998;4.250;2024-02-21T13:18:56;100672.97;;;16.31;nan
13593;BME280;6867;50.998;4.250;2024-02-21T13:21:23;100659.66;;;15.51;nan
13593;BME280;6867;50.998;4.250;2024-02-21T13:23:51;100678.13;;;15.82;nan